Current Weather

Giddings-Lee County

Giddings, Texas (KGYB)

Report from: Saturday, February 4, 2023 5:15 AM UTC
Current time: Saturday, February 4, 2023 5:48 AM UTC

Nearby weather
Weather history
Weather forecast

Present weatherMist
Temperature2.1°C (35.8°F)
Dew point1.7°C (35.1°F)
Winds Calm
Visibility5 mi. (8 km)
Clouds Sky clear
Altimeter30.51 in.Hg (1033 mB)
Relative humidity97 %
Density altitude-2,142 ft. (-653 m)
Remarks Fully automated report
Automated weather observing station with precipitation discriminator
Flight conditions Visual Meteorological Conditions
Raw dataKGYB 040515Z AUTO 00000KT 5SM BR CLR 02/02 A3051 RMK AO2 T00210017
An unhandled exception has occurred. See browser dev tools for details. Reload 🗙